sensor_id;sensor_type;location;lat;lon;timestamp;P1;durP1;ratioP1;P2;durP2;ratioP2
75071;SDS011;63651;55.728;38.022;2024-02-21T00:05:01;6.95;;;5.30;;
75071;SDS011;63651;55.728;38.022;2024-02-21T00:10:03;7.00;;;5.15;;
75071;SDS011;63651;55.728;38.022;2024-02-21T00:15:06;7.45;;;4.80;;
75071;SDS011;63651;55.728;38.022;2024-02-21T00:20:10;6.95;;;4.65;;
75071;SDS011;63651;55.728;38.022;2024-02-21T00:25:13;6.10;;;4.70;;
75071;SDS011;63651;55.728;38.022;2024-02-21T00:30:16;8.32;;;4.50;;
75071;SDS011;63651;55.728;38.022;2024-02-21T00:35:18;7.45;;;4.65;;
75071;SDS011;63651;55.728;38.022;2024-02-21T00:40:20;5.50;;;4.75;;
75071;SDS011;63651;55.728;38.022;2024-02-21T00:45:24;6.22;;;4.38;;
75071;SDS011;63651;55.728;38.022;2024-02-21T00:50:25;5.38;;;4.28;;
75071;SDS011;63651;55.728;38.022;2024-02-21T00:55:28;6.00;;;3.97;;
75071;SDS011;63651;55.728;38.022;2024-02-21T01:00:30;5.55;;;4.50;;
75071;SDS011;63651;55.728;38.022;2024-02-21T01:05:32;6.82;;;4.40;;
75071;SDS011;63651;55.728;38.022;2024-02-21T01:10:34;6.00;;;4.20;;
75071;SDS011;63651;55.728;38.022;2024-02-21T01:15:37;6.45;;;4.25;;
75071;SDS011;63651;55.728;38.022;2024-02-21T01:20:40;5.85;;;3.90;;
75071;SDS011;63651;55.728;38.022;2024-02-21T01:25:42;4.93;;;3.80;;
75071;SDS011;63651;55.728;38.022;2024-02-21T01:30:44;6.63;;;4.35;;
75071;SDS011;63651;55.728;38.022;2024-02-21T01:35:47;8.65;;;4.75;;
75071;SDS011;63651;55.728;38.022;2024-02-21T01:40:50;7.18;;;5.32;;
75071;SDS011;63651;55.728;38.022;2024-02-21T01:45:52;7.47;;;5.00;;
75071;SDS011;63651;55.728;38.022;2024-02-21T01:50:56;8.05;;;4.93;;
75071;SDS011;63651;55.728;38.022;2024-02-21T01:55:59;9.98;;;5.55;;
75071;SDS011;63651;55.728;38.022;2024-02-21T02:01:01;8.00;;;5.05;;
75071;SDS011;63651;55.728;38.022;2024-02-21T02:06:06;6.30;;;4.60;;
75071;SDS011;63651;55.728;38.022;2024-02-21T02:11:10;5.55;;;4.25;;
75071;SDS011;63651;55.728;38.022;2024-02-21T02:16:12;6.10;;;4.45;;
75071;SDS011;63651;55.728;38.022;2024-02-21T02:21:20;6.80;;;5.10;;
75071;SDS011;63651;55.728;38.022;2024-02-21T02:26:28;5.07;;;4.18;;
75071;SDS011;63651;55.728;38.022;2024-02-21T02:31:31;6.75;;;4.10;;
75071;SDS011;63651;55.728;38.022;2024-02-21T02:36:35;7.80;;;4.43;;
75071;SDS011;63651;55.728;38.022;2024-02-21T02:41:37;7.03;;;4.68;;
75071;SDS011;63651;55.728;38.022;2024-02-21T02:46:40;5.25;;;3.72;;
75071;SDS011;63651;55.728;38.022;2024-02-21T02:51:43;7.32;;;4.05;;
75071;SDS011;63651;55.728;38.022;2024-02-21T02:56:45;7.13;;;4.15;;
75071;SDS011;63651;55.728;38.022;2024-02-21T03:01:48;6.50;;;4.45;;
75071;SDS011;63651;55.728;38.022;2024-02-21T03:06:50;6.25;;;4.32;;
75071;SDS011;63651;55.728;38.022;2024-02-21T03:11:52;7.20;;;4.20;;
75071;SDS011;63651;55.728;38.022;2024-02-21T03:16:58;6.78;;;4.40;;
75071;SDS011;63651;55.728;38.022;2024-02-21T03:22:00;7.45;;;4.50;;
75071;SDS011;63651;55.728;38.022;2024-02-21T03:27:02;6.43;;;4.18;;
75071;SDS011;63651;55.728;38.022;2024-02-21T03:32:05;7.80;;;4.68;;
75071;SDS011;63651;55.728;38.022;2024-02-21T03:37:07;7.28;;;4.57;;
75071;SDS011;63651;55.728;38.022;2024-02-21T03:42:09;8.07;;;4.30;;
75071;SDS011;63651;55.728;38.022;2024-02-21T03:47:11;7.25;;;4.38;;
75071;SDS011;63651;55.728;38.022;2024-02-21T03:52:13;7.28;;;4.55;;
75071;SDS011;63651;55.728;38.022;2024-02-21T03:57:16;6.47;;;4.22;;
75071;SDS011;63651;55.728;38.022;2024-02-21T04:02:19;6.00;;;4.50;;
75071;SDS011;63651;55.728;38.022;2024-02-21T04:07:21;6.20;;;4.90;;
75071;SDS011;63651;55.728;38.022;2024-02-21T04:12:23;7.22;;;4.60;;
75071;SDS011;63651;55.728;38.022;2024-02-21T04:17:26;6.50;;;4.35;;
75071;SDS011;63651;55.728;38.022;2024-02-21T04:22:27;9.48;;;6.00;;
75071;SDS011;63651;55.728;38.022;2024-02-21T04:27:30;5.53;;;4.55;;
75071;SDS011;63651;55.728;38.022;2024-02-21T04:32:32;9.82;;;5.35;;
75071;SDS011;63651;55.728;38.022;2024-02-21T04:37:34;7.93;;;5.05;;
75071;SDS011;63651;55.728;38.022;2024-02-21T04:42:36;9.68;;;6.05;;
75071;SDS011;63651;55.728;38.022;2024-02-21T04:47:38;8.43;;;5.72;;
75071;SDS011;63651;55.728;38.022;2024-02-21T04:52:41;10.73;;;6.63;;
75071;SDS011;63651;55.728;38.022;2024-02-21T04:57:44;10.18;;;5.80;;
75071;SDS011;63651;55.728;38.022;2024-02-21T05:02:47;8.55;;;6.00;;
75071;SDS011;63651;55.728;38.022;2024-02-21T05:07:49;7.70;;;5.47;;
75071;SDS011;63651;55.728;38.022;2024-02-21T05:12:52;7.82;;;5.45;;
75071;SDS011;63651;55.728;38.022;2024-02-21T05:17:54;7.28;;;5.30;;
75071;SDS011;63651;55.728;38.022;2024-02-21T05:22:55;7.28;;;5.10;;
75071;SDS011;63651;55.728;38.022;2024-02-21T05:27:58;7.72;;;4.88;;
75071;SDS011;63651;55.728;38.022;2024-02-21T05:33:03;6.90;;;5.03;;
75071;SDS011;63651;55.728;38.022;2024-02-21T05:38:06;7.97;;;5.63;;
75071;SDS011;63651;55.728;38.022;2024-02-21T05:43:13;7.32;;;4.70;;
75071;SDS011;63651;55.728;38.022;2024-02-21T05:48:15;7.50;;;3.65;;
75071;SDS011;63651;55.728;38.022;2024-02-21T05:53:17;4.85;;;3.53;;
75071;SDS011;63651;55.728;38.022;2024-02-21T05:58:19;6.13;;;4.03;;
75071;SDS011;63651;55.728;38.022;2024-02-21T06:03:21;4.93;;;3.42;;
75071;SDS011;63651;55.728;38.022;2024-02-21T06:08:23;6.88;;;3.15;;
75071;SDS011;63651;55.728;38.022;2024-02-21T06:13:26;5.90;;;3.90;;
75071;SDS011;63651;55.728;38.022;2024-02-21T06:18:29;5.05;;;3.50;;
75071;SDS011;63651;55.728;38.022;2024-02-21T06:23:31;5.60;;;3.47;;
75071;SDS011;63651;55.728;38.022;2024-02-21T06:28:32;5.00;;;3.30;;
75071;SDS011;63651;55.728;38.022;2024-02-21T06:33:35;4.88;;;3.83;;
75071;SDS011;63651;55.728;38.022;2024-02-21T06:38:38;5.72;;;4.00;;
75071;SDS011;63651;55.728;38.022;2024-02-21T06:43:39;4.55;;;3.42;;
75071;SDS011;63651;55.728;38.022;2024-02-21T06:48:41;4.47;;;3.92;;
75071;SDS011;63651;55.728;38.022;2024-02-21T06:53:44;5.20;;;3.88;;
75071;SDS011;63651;55.728;38.022;2024-02-21T06:58:45;5.57;;;3.97;;
75071;SDS011;63651;55.728;38.022;2024-02-21T07:03:47;6.10;;;4.28;;
75071;SDS011;63651;55.728;38.022;2024-02-21T07:08:50;5.40;;;3.75;;
75071;SDS011;63651;55.728;38.022;2024-02-21T07:13:52;6.18;;;3.53;;
75071;SDS011;63651;55.728;38.022;2024-02-21T07:18:55;5.72;;;3.83;;
75071;SDS011;63651;55.728;38.022;2024-02-21T07:23:57;5.53;;;3.33;;
75071;SDS011;63651;55.728;38.022;2024-02-21T07:28:59;5.30;;;3.45;;
75071;SDS011;63651;55.728;38.022;2024-02-21T07:34:00;5.65;;;3.70;;
75071;SDS011;63651;55.728;38.022;2024-02-21T07:39:02;4.47;;;3.33;;
75071;SDS011;63651;55.728;38.022;2024-02-21T07:44:05;6.32;;;4.25;;
75071;SDS011;63651;55.728;38.022;2024-02-21T07:49:07;4.78;;;3.45;;
75071;SDS011;63651;55.728;38.022;2024-02-21T07:54:09;4.43;;;3.63;;
75071;SDS011;63651;55.728;38.022;2024-02-21T07:59:12;4.80;;;3.95;;
75071;SDS011;63651;55.728;38.022;2024-02-21T08:04:15;4.50;;;3.70;;
75071;SDS011;63651;55.728;38.022;2024-02-21T08:09:18;6.35;;;3.72;;
75071;SDS011;63651;55.728;38.022;2024-02-21T08:14:20;4.10;;;3.42;;
75071;SDS011;63651;55.728;38.022;2024-02-21T08:19:23;4.30;;;3.35;;
75071;SDS011;63651;55.728;38.022;2024-02-21T08:24:25;5.22;;;3.95;;
75071;SDS011;63651;55.728;38.022;2024-02-21T08:29:27;4.43;;;3.45;;
75071;SDS011;63651;55.728;38.022;2024-02-21T08:34:30;3.00;;;2.38;;
75071;SDS011;63651;55.728;38.022;2024-02-21T08:39:35;4.10;;;3.08;;
75071;SDS011;63651;55.728;38.022;2024-02-21T08:44:37;5.63;;;3.50;;
75071;SDS011;63651;55.728;38.022;2024-02-21T08:49:41;5.82;;;3.72;;
75071;SDS011;63651;55.728;38.022;2024-02-21T08:54:44;4.45;;;3.20;;
75071;SDS011;63651;55.728;38.022;2024-02-21T08:59:47;5.53;;;3.53;;
75071;SDS011;63651;55.728;38.022;2024-02-21T09:04:49;4.38;;;3.30;;
75071;SDS011;63651;55.728;38.022;2024-02-21T09:09:51;4.20;;;3.08;;
75071;SDS011;63651;55.728;38.022;2024-02-21T09:14:53;4.25;;;3.33;;
75071;SDS011;63651;55.728;38.022;2024-02-21T09:19:54;3.40;;;3.00;;
75071;SDS011;63651;55.728;38.022;2024-02-21T09:25:00;4.22;;;3.30;;
75071;SDS011;63651;55.728;38.022;2024-02-21T09:30:05;5.22;;;3.75;;
75071;SDS011;63651;55.728;38.022;2024-02-21T09:35:09;5.18;;;3.60;;
75071;SDS011;63651;55.728;38.022;2024-02-21T09:40:11;4.47;;;3.00;;
75071;SDS011;63651;55.728;38.022;2024-02-21T09:45:36;4.53;;;3.38;;
75071;SDS011;63651;55.728;38.022;2024-02-21T09:50:41;4.82;;;3.65;;
75071;SDS011;63651;55.728;38.022;2024-02-21T09:55:45;4.57;;;3.53;;
75071;SDS011;63651;55.728;38.022;2024-02-21T10:00:50;5.57;;;3.50;;
75071;SDS011;63651;55.728;38.022;2024-02-21T10:05:52;6.05;;;4.57;;
75071;SDS011;63651;55.728;38.022;2024-02-21T10:10:54;5.90;;;4.32;;
75071;SDS011;63651;55.728;38.022;2024-02-21T10:16:04;4.47;;;3.40;;
75071;SDS011;63651;55.728;38.022;2024-02-21T10:21:10;6.55;;;4.25;;
75071;SDS011;63651;55.728;38.022;2024-02-21T10:26:13;5.38;;;4.13;;
75071;SDS011;63651;55.728;38.022;2024-02-21T10:31:26;5.88;;;3.78;;
75071;SDS011;63651;55.728;38.022;2024-02-21T10:36:29;5.57;;;3.83;;
75071;SDS011;63651;55.728;38.022;2024-02-21T10:41:30;4.88;;;3.67;;
75071;SDS011;63651;55.728;38.022;2024-02-21T10:46:33;5.57;;;3.58;;
75071;SDS011;63651;55.728;38.022;2024-02-21T10:51:42;5.28;;;3.47;;
75071;SDS011;63651;55.728;38.022;2024-02-21T10:56:47;6.50;;;3.45;;
75071;SDS011;63651;55.728;38.022;2024-02-21T11:01:52;4.28;;;3.28;;
75071;SDS011;63651;55.728;38.022;2024-02-21T11:06:54;4.25;;;3.35;;
75071;SDS011;63651;55.728;38.022;2024-02-21T11:11:57;4.25;;;3.05;;
75071;SDS011;63651;55.728;38.022;2024-02-21T11:17:01;6.55;;;3.75;;
75071;SDS011;63651;55.728;38.022;2024-02-21T11:22:03;5.88;;;3.83;;
75071;SDS011;63651;55.728;38.022;2024-02-21T11:27:21;8.00;;;3.75;;
75071;SDS011;63651;55.728;38.022;2024-02-21T11:32:26;8.05;;;3.22;;
75071;SDS011;63651;55.728;38.022;2024-02-21T11:37:32;7.35;;;4.40;;
75071;SDS011;63651;55.728;38.022;2024-02-21T11:42:35;7.90;;;3.42;;
75071;SDS011;63651;55.728;38.022;2024-02-21T11:47:37;7.65;;;3.72;;
75071;SDS011;63651;55.728;38.022;2024-02-21T11:52:40;5.32;;;3.22;;
75071;SDS011;63651;55.728;38.022;2024-02-21T11:57:43;8.68;;;3.70;;
75071;SDS011;63651;55.728;38.022;2024-02-21T12:02:46;4.13;;;3.13;;
75071;SDS011;63651;55.728;38.022;2024-02-21T12:07:48;5.28;;;3.45;;
75071;SDS011;63651;55.728;38.022;2024-02-21T12:12:51;7.35;;;3.40;;
75071;SDS011;63651;55.728;38.022;2024-02-21T12:17:53;4.60;;;3.40;;
75071;SDS011;63651;55.728;38.022;2024-02-21T12:22:55;5.45;;;3.50;;
75071;SDS011;63651;55.728;38.022;2024-02-21T12:28:00;6.60;;;3.33;;
75071;SDS011;63651;55.728;38.022;2024-02-21T12:33:03;5.53;;;3.30;;
75071;SDS011;63651;55.728;38.022;2024-02-21T12:38:07;4.40;;;3.20;;
75071;SDS011;63651;55.728;38.022;2024-02-21T12:43:09;5.28;;;3.65;;
75071;SDS011;63651;55.728;38.022;2024-02-21T12:48:12;4.35;;;3.08;;
75071;SDS011;63651;55.728;38.022;2024-02-21T12:53:14;5.18;;;3.38;;
75071;SDS011;63651;55.728;38.022;2024-02-21T12:58:17;6.03;;;3.60;;
75071;SDS011;63651;55.728;38.022;2024-02-21T13:03:19;4.45;;;3.35;;
75071;SDS011;63651;55.728;38.022;2024-02-21T13:08:22;4.63;;;2.95;;
75071;SDS011;63651;55.728;38.022;2024-02-21T13:13:25;5.05;;;3.17;;
75071;SDS011;63651;55.728;38.022;2024-02-21T13:18:28;8.38;;;4.30;;
75071;SDS011;63651;55.728;38.022;2024-02-21T13:23:30;5.35;;;3.33;;
75071;SDS011;63651;55.728;38.022;2024-02-21T13:28:32;7.43;;;4.13;;
75071;SDS011;63651;55.728;38.022;2024-02-21T13:33:35;5.43;;;3.85;;
75071;SDS011;63651;55.728;38.022;2024-02-21T13:38:38;5.80;;;3.15;;
75071;SDS011;63651;55.728;38.022;2024-02-21T13:43:41;4.60;;;3.22;;
75071;SDS011;63651;55.728;38.022;2024-02-21T13:48:43;4.35;;;3.50;;
75071;SDS011;63651;55.728;38.022;2024-02-21T13:53:46;5.10;;;3.53;;
75071;SDS011;63651;55.728;38.022;2024-02-21T13:58:49;5.80;;;3.17;;
75071;SDS011;63651;55.728;38.022;2024-02-21T14:03:51;5.72;;;3.20;;
75071;SDS011;63651;55.728;38.022;2024-02-21T14:08:54;5.50;;;3.40;;
75071;SDS011;63651;55.728;38.022;2024-02-21T14:13:56;6.55;;;3.67;;
75071;SDS011;63651;55.728;38.022;2024-02-21T14:18:59;3.47;;;3.03;;
75071;SDS011;63651;55.728;38.022;2024-02-21T14:24:01;3.22;;;2.60;;
75071;SDS011;63651;55.728;38.022;2024-02-21T14:29:05;3.70;;;2.72;;
75071;SDS011;63651;55.728;38.022;2024-02-21T14:34:07;3.97;;;3.58;;
75071;SDS011;63651;55.728;38.022;2024-02-21T14:39:10;5.50;;;3.25;;
75071;SDS011;63651;55.728;38.022;2024-02-21T14:44:13;4.28;;;3.17;;
75071;SDS011;63651;55.728;38.022;2024-02-21T14:49:15;4.20;;;2.72;;
75071;SDS011;63651;55.728;38.022;2024-02-21T14:54:20;3.72;;;2.70;;
75071;SDS011;63651;55.728;38.022;2024-02-21T14:59:22;4.65;;;3.17;;
75071;SDS011;63651;55.728;38.022;2024-02-21T15:04:24;5.53;;;3.00;;
75071;SDS011;63651;55.728;38.022;2024-02-21T15:09:27;4.88;;;3.38;;
75071;SDS011;63651;55.728;38.022;2024-02-21T15:14:30;4.32;;;2.90;;
75071;SDS011;63651;55.728;38.022;2024-02-21T15:19:33;4.50;;;2.80;;
75071;SDS011;63651;55.728;38.022;2024-02-21T15:24:36;4.97;;;3.30;;
75071;SDS011;63651;55.728;38.022;2024-02-21T15:29:38;4.43;;;3.20;;
75071;SDS011;63651;55.728;38.022;2024-02-21T15:34:41;5.00;;;3.00;;
75071;SDS011;63651;55.728;38.022;2024-02-21T15:39:43;4.93;;;3.20;;
75071;SDS011;63651;55.728;38.022;2024-02-21T15:44:45;4.90;;;2.97;;
75071;SDS011;63651;55.728;38.022;2024-02-21T15:49:46;5.07;;;3.25;;
75071;SDS011;63651;55.728;38.022;2024-02-21T15:54:49;5.10;;;3.88;;
75071;SDS011;63651;55.728;38.022;2024-02-21T15:59:51;5.60;;;4.32;;
75071;SDS011;63651;55.728;38.022;2024-02-21T16:04:57;7.75;;;4.93;;
75071;SDS011;63651;55.728;38.022;2024-02-21T16:10:00;6.47;;;5.13;;
75071;SDS011;63651;55.728;38.022;2024-02-21T16:15:02;7.40;;;4.82;;
75071;SDS011;63651;55.728;38.022;2024-02-21T16:20:07;5.95;;;5.03;;
75071;SDS011;63651;55.728;38.022;2024-02-21T16:25:29;7.80;;;5.35;;
75071;SDS011;63651;55.728;38.022;2024-02-21T16:30:31;6.72;;;5.13;;
75071;SDS011;63651;55.728;38.022;2024-02-21T16:35:33;6.50;;;4.82;;
75071;SDS011;63651;55.728;38.022;2024-02-21T16:40:38;7.82;;;5.15;;
75071;SDS011;63651;55.728;38.022;2024-02-21T16:45:42;7.63;;;5.10;;
75071;SDS011;63651;55.728;38.022;2024-02-21T16:50:44;8.05;;;5.50;;
75071;SDS011;63651;55.728;38.022;2024-02-21T16:55:46;8.13;;;5.55;;
75071;SDS011;63651;55.728;38.022;2024-02-21T17:00:50;8.02;;;5.35;;
75071;SDS011;63651;55.728;38.022;2024-02-21T17:05:52;7.78;;;5.40;;
75071;SDS011;63651;55.728;38.022;2024-02-21T17:10:54;7.68;;;5.40;;
75071;SDS011;63651;55.728;38.022;2024-02-21T17:15:56;6.90;;;5.25;;
75071;SDS011;63651;55.728;38.022;2024-02-21T17:20:59;7.68;;;5.45;;
75071;SDS011;63651;55.728;38.022;2024-02-21T17:26:01;8.35;;;5.10;;
75071;SDS011;63651;55.728;38.022;2024-02-21T17:31:03;6.57;;;4.80;;
75071;SDS011;63651;55.728;38.022;2024-02-21T17:36:06;7.45;;;5.25;;
75071;SDS011;63651;55.728;38.022;2024-02-21T17:41:10;8.50;;;5.30;;
75071;SDS011;63651;55.728;38.022;2024-02-21T17:46:12;7.93;;;5.03;;
75071;SDS011;63651;55.728;38.022;2024-02-21T17:51:14;8.05;;;5.55;;
75071;SDS011;63651;55.728;38.022;2024-02-21T17:56:16;8.27;;;5.53;;
75071;SDS011;63651;55.728;38.022;2024-02-21T18:01:20;8.25;;;5.47;;
75071;SDS011;63651;55.728;38.022;2024-02-21T18:06:22;8.65;;;5.18;;
75071;SDS011;63651;55.728;38.022;2024-02-21T18:11:26;8.82;;;5.53;;
75071;SDS011;63651;55.728;38.022;2024-02-21T18:16:29;10.80;;;6.25;;
75071;SDS011;63651;55.728;38.022;2024-02-21T18:21:31;8.90;;;6.10;;
75071;SDS011;63651;55.728;38.022;2024-02-21T18:26:34;9.63;;;5.82;;
75071;SDS011;63651;55.728;38.022;2024-02-21T18:31:36;9.18;;;5.43;;
75071;SDS011;63651;55.728;38.022;2024-02-21T18:36:39;8.18;;;4.93;;
75071;SDS011;63651;55.728;38.022;2024-02-21T18:41:41;8.32;;;5.35;;
75071;SDS011;63651;55.728;38.022;2024-02-21T18:46:45;9.50;;;5.50;;
75071;SDS011;63651;55.728;38.022;2024-02-21T18:51:48;7.82;;;5.18;;
75071;SDS011;63651;55.728;38.022;2024-02-21T18:56:51;6.35;;;4.60;;
75071;SDS011;63651;55.728;38.022;2024-02-21T19:01:53;8.00;;;5.13;;
75071;SDS011;63651;55.728;38.022;2024-02-21T19:06:56;9.80;;;5.28;;
75071;SDS011;63651;55.728;38.022;2024-02-21T19:11:58;8.77;;;5.40;;
75071;SDS011;63651;55.728;38.022;2024-02-21T19:17:00;8.82;;;5.18;;
75071;SDS011;63651;55.728;38.022;2024-02-21T19:22:03;8.38;;;5.35;;
75071;SDS011;63651;55.728;38.022;2024-02-21T19:27:07;6.97;;;4.82;;
75071;SDS011;63651;55.728;38.022;2024-02-21T19:32:10;7.97;;;5.15;;
75071;SDS011;63651;55.728;38.022;2024-02-21T19:37:13;10.57;;;6.03;;
75071;SDS011;63651;55.728;38.022;2024-02-21T19:42:16;8.70;;;4.88;;
75071;SDS011;63651;55.728;38.022;2024-02-21T19:47:18;7.53;;;5.15;;
75071;SDS011;63651;55.728;38.022;2024-02-21T19:52:20;7.82;;;5.47;;
75071;SDS011;63651;55.728;38.022;2024-02-21T19:57:24;8.43;;;5.70;;
75071;SDS011;63651;55.728;38.022;2024-02-21T20:02:30;8.80;;;5.70;;
75071;SDS011;63651;55.728;38.022;2024-02-21T20:07:32;8.68;;;5.32;;
75071;SDS011;63651;55.728;38.022;2024-02-21T20:12:35;9.27;;;5.18;;
75071;SDS011;63651;55.728;38.022;2024-02-21T20:17:41;9.00;;;5.75;;
75071;SDS011;63651;55.728;38.022;2024-02-21T20:22:47;7.22;;;5.20;;
75071;SDS011;63651;55.728;38.022;2024-02-21T20:27:50;8.38;;;5.47;;
75071;SDS011;63651;55.728;38.022;2024-02-21T20:32:54;9.45;;;5.50;;
75071;SDS011;63651;55.728;38.022;2024-02-21T20:37:57;10.05;;;5.63;;
75071;SDS011;63651;55.728;38.022;2024-02-21T20:42:59;9.05;;;5.80;;
75071;SDS011;63651;55.728;38.022;2024-02-21T20:48:01;8.25;;;5.40;;
75071;SDS011;63651;55.728;38.022;2024-02-21T20:53:05;7.93;;;5.15;;
75071;SDS011;63651;55.728;38.022;2024-02-21T20:58:07;8.55;;;5.32;;
75071;SDS011;63651;55.728;38.022;2024-02-21T21:03:10;7.28;;;5.18;;
75071;SDS011;63651;55.728;38.022;2024-02-21T21:08:12;9.35;;;5.60;;
75071;SDS011;63651;55.728;38.022;2024-02-21T21:13:14;8.80;;;5.13;;
75071;SDS011;63651;55.728;38.022;2024-02-21T21:18:17;7.78;;;5.22;;
75071;SDS011;63651;55.728;38.022;2024-02-21T21:23:19;9.25;;;5.38;;
75071;SDS011;63651;55.728;38.022;2024-02-21T21:28:21;8.43;;;5.43;;
75071;SDS011;63651;55.728;38.022;2024-02-21T21:33:25;8.35;;;5.47;;
75071;SDS011;63651;55.728;38.022;2024-02-21T21:38:28;8.73;;;5.70;;
75071;SDS011;63651;55.728;38.022;2024-02-21T21:43:30;8.07;;;5.80;;
75071;SDS011;63651;55.728;38.022;2024-02-21T21:48:33;7.45;;;5.65;;
75071;SDS011;63651;55.728;38.022;2024-02-21T21:53:35;7.57;;;5.20;;
75071;SDS011;63651;55.728;38.022;2024-02-21T21:58:38;7.47;;;4.93;;
75071;SDS011;63651;55.728;38.022;2024-02-21T22:03:40;8.75;;;5.30;;
75071;SDS011;63651;55.728;38.022;2024-02-21T22:08:42;9.50;;;6.07;;
75071;SDS011;63651;55.728;38.022;2024-02-21T22:13:45;9.63;;;5.95;;
75071;SDS011;63651;55.728;38.022;2024-02-21T22:18:50;8.88;;;5.53;;
75071;SDS011;63651;55.728;38.022;2024-02-21T22:23:52;10.18;;;5.53;;
75071;SDS011;63651;55.728;38.022;2024-02-21T22:28:54;10.00;;;5.82;;
75071;SDS011;63651;55.728;38.022;2024-02-21T22:33:58;9.07;;;5.93;;
75071;SDS011;63651;55.728;38.022;2024-02-21T22:39:00;8.13;;;5.65;;
75071;SDS011;63651;55.728;38.022;2024-02-21T22:44:02;9.98;;;5.70;;
75071;SDS011;63651;55.728;38.022;2024-02-21T22:49:04;10.40;;;5.88;;
75071;SDS011;63651;55.728;38.022;2024-02-21T22:54:07;9.13;;;5.70;;
75071;SDS011;63651;55.728;38.022;2024-02-21T22:59:09;9.20;;;5.63;;
75071;SDS011;63651;55.728;38.022;2024-02-21T23:04:13;9.25;;;5.60;;
75071;SDS011;63651;55.728;38.022;2024-02-21T23:09:15;12.43;;;6.28;;
75071;SDS011;63651;55.728;38.022;2024-02-21T23:14:18;8.68;;;6.03;;
75071;SDS011;63651;55.728;38.022;2024-02-21T23:19:21;9.38;;;5.68;;
75071;SDS011;63651;55.728;38.022;2024-02-21T23:24:25;8.35;;;5.60;;
75071;SDS011;63651;55.728;38.022;2024-02-21T23:29:28;9.68;;;5.70;;
75071;SDS011;63651;55.728;38.022;2024-02-21T23:34:29;10.52;;;6.35;;
75071;SDS011;63651;55.728;38.022;2024-02-21T23:39:32;9.70;;;5.85;;
75071;SDS011;63651;55.728;38.022;2024-02-21T23:44:34;7.50;;;5.32;;
75071;SDS011;63651;55.728;38.022;2024-02-21T23:49:36;8.23;;;5.88;;
75071;SDS011;63651;55.728;38.022;2024-02-21T23:54:40;9.55;;;6.18;;
75071;SDS011;63651;55.728;38.022;2024-02-21T23:59:42;9.70;;;5.90;;
